sensor_id;sensor_type;location;lat;lon;timestamp;P1;durP1;ratioP1;P2;durP2;ratioP2
9801;SDS011;4940;50.900;4.672;2023-02-21T00:00:18;34.33;;;30.85;;
9801;SDS011;4940;50.900;4.672;2023-02-21T00:03:03;35.40;;;31.85;;
9801;SDS011;4940;50.900;4.672;2023-02-21T00:05:49;37.63;;;34.05;;
9801;SDS011;4940;50.900;4.672;2023-02-21T00:08:34;36.50;;;32.97;;
9801;SDS011;4940;50.900;4.672;2023-02-21T00:11:19;36.33;;;32.72;;
9801;SDS011;4940;50.900;4.672;2023-02-21T00:14:05;38.33;;;34.70;;
9801;SDS011;4940;50.900;4.672;2023-02-21T00:16:50;36.42;;;32.95;;
9801;SDS011;4940;50.900;4.672;2023-02-21T00:19:36;38.22;;;34.50;;
9801;SDS011;4940;50.900;4.672;2023-02-21T00:22:21;37.67;;;33.83;;
9801;SDS011;4940;50.900;4.672;2023-02-21T00:25:06;37.03;;;33.30;;
9801;SDS011;4940;50.900;4.672;2023-02-21T00:27:51;38.13;;;34.22;;
9801;SDS011;4940;50.900;4.672;2023-02-21T00:30:37;40.20;;;35.92;;
9801;SDS011;4940;50.900;4.672;2023-02-21T00:33:22;40.85;;;36.75;;
9801;SDS011;4940;50.900;4.672;2023-02-21T00:36:07;41.00;;;37.40;;
9801;SDS011;4940;50.900;4.672;2023-02-21T00:38:53;41.30;;;37.45;;
9801;SDS011;4940;50.900;4.672;2023-02-21T00:41:38;41.08;;;37.42;;
9801;SDS011;4940;50.900;4.672;2023-02-21T00:44:23;42.60;;;38.65;;
9801;SDS011;4940;50.900;4.672;2023-02-21T00:47:09;40.95;;;37.35;;
9801;SDS011;4940;50.900;4.672;2023-02-21T00:49:54;44.15;;;40.22;;
9801;SDS011;4940;50.900;4.672;2023-02-21T00:52:39;43.78;;;39.75;;
9801;SDS011;4940;50.900;4.672;2023-02-21T00:55:24;42.67;;;38.65;;
9801;SDS011;4940;50.900;4.672;2023-02-21T00:58:09;42.65;;;38.80;;
9801;SDS011;4940;50.900;4.672;2023-02-21T01:00:54;35.53;;;32.00;;
9801;SDS011;4940;50.900;4.672;2023-02-21T01:03:41;40.20;;;36.20;;
9801;SDS011;4940;50.900;4.672;2023-02-21T01:06:26;39.17;;;35.17;;
9801;SDS011;4940;50.900;4.672;2023-02-21T01:09:11;43.15;;;39.22;;
9801;SDS011;4940;50.900;4.672;2023-02-21T01:11:56;46.45;;;41.95;;
9801;SDS011;4940;50.900;4.672;2023-02-21T01:14:41;46.28;;;41.95;;
9801;SDS011;4940;50.900;4.672;2023-02-21T01:17:26;47.92;;;43.28;;
9801;SDS011;4940;50.900;4.672;2023-02-21T01:20:13;45.45;;;40.70;;
9801;SDS011;4940;50.900;4.672;2023-02-21T01:22:58;45.22;;;40.67;;
9801;SDS011;4940;50.900;4.672;2023-02-21T01:25:43;47.00;;;39.90;;
9801;SDS011;4940;50.900;4.672;2023-02-21T01:28:28;44.35;;;39.63;;
9801;SDS011;4940;50.900;4.672;2023-02-21T01:31:15;48.30;;;43.17;;
9801;SDS011;4940;50.900;4.672;2023-02-21T01:34:00;49.47;;;44.58;;
9801;SDS011;4940;50.900;4.672;2023-02-21T01:36:47;48.38;;;43.40;;
9801;SDS011;4940;50.900;4.672;2023-02-21T01:39:32;50.10;;;44.70;;
9801;SDS011;4940;50.900;4.672;2023-02-21T01:42:17;51.65;;;46.35;;
9801;SDS011;4940;50.900;4.672;2023-02-21T01:45:19;53.10;;;47.53;;
9801;SDS011;4940;50.900;4.672;2023-02-21T01:48:32;50.10;;;45.35;;
9801;SDS011;4940;50.900;4.672;2023-02-21T01:51:18;48.42;;;43.28;;
9801;SDS011;4940;50.900;4.672;2023-02-21T01:54:07;52.10;;;46.92;;
9801;SDS011;4940;50.900;4.672;2023-02-21T01:56:53;50.17;;;44.70;;
9801;SDS011;4940;50.900;4.672;2023-02-21T01:59:39;49.35;;;43.67;;
9801;SDS011;4940;50.900;4.672;2023-02-21T02:02:26;51.75;;;41.17;;
9801;SDS011;4940;50.900;4.672;2023-02-21T02:05:15;47.30;;;42.03;;
9801;SDS011;4940;50.900;4.672;2023-02-21T02:08:01;49.15;;;43.65;;
9801;SDS011;4940;50.900;4.672;2023-02-21T02:10:48;49.78;;;44.63;;
9801;SDS011;4940;50.900;4.672;2023-02-21T02:13:44;48.47;;;43.22;;
9801;SDS011;4940;50.900;4.672;2023-02-21T02:16:23;49.42;;;43.97;;
9801;SDS011;4940;50.900;4.672;2023-02-21T02:19:14;50.67;;;45.75;;
9801;SDS011;4940;50.900;4.672;2023-02-21T02:22:07;51.80;;;46.70;;
9801;SDS011;4940;50.900;4.672;2023-02-21T02:28:13;49.72;;;44.50;;
9801;SDS011;4940;50.900;4.672;2023-02-21T02:36:53;46.00;;;40.70;;
9801;SDS011;4940;50.900;4.672;2023-02-21T02:39:28;47.88;;;43.13;;
9801;SDS011;4940;50.900;4.672;2023-02-21T02:42:05;48.47;;;43.03;;
9801;SDS011;4940;50.900;4.672;2023-02-21T02:44:37;49.05;;;44.05;;
9801;SDS011;4940;50.900;4.672;2023-02-21T02:47:07;50.25;;;45.13;;
9801;SDS011;4940;50.900;4.672;2023-02-21T02:49:41;51.53;;;46.22;;
9801;SDS011;4940;50.900;4.672;2023-02-21T02:52:09;52.03;;;46.63;;
9801;SDS011;4940;50.900;4.672;2023-02-21T02:54:37;53.92;;;48.88;;
9801;SDS011;4940;50.900;4.672;2023-02-21T02:57:05;54.28;;;49.08;;
9801;SDS011;4940;50.900;4.672;2023-02-21T02:59:37;50.67;;;45.85;;
9801;SDS011;4940;50.900;4.672;2023-02-21T03:05:08;45.13;;;40.35;;
9801;SDS011;4940;50.900;4.672;2023-02-21T03:07:47;49.55;;;44.75;;
9801;SDS011;4940;50.900;4.672;2023-02-21T03:10:26;51.22;;;46.10;;
9801;SDS011;4940;50.900;4.672;2023-02-21T03:13:03;56.05;;;49.90;;
9801;SDS011;4940;50.900;4.672;2023-02-21T03:15:36;51.47;;;46.20;;
9801;SDS011;4940;50.900;4.672;2023-02-21T03:18:08;53.63;;;47.88;;
9801;SDS011;4940;50.900;4.672;2023-02-21T03:20:43;50.40;;;45.08;;
9801;SDS011;4940;50.900;4.672;2023-02-21T03:23:12;53.10;;;47.45;;
9801;SDS011;4940;50.900;4.672;2023-02-21T03:25:41;49.85;;;44.70;;
9801;SDS011;4940;50.900;4.672;2023-02-21T03:28:10;50.28;;;44.97;;
9801;SDS011;4940;50.900;4.672;2023-02-21T03:30:38;51.13;;;46.10;;
9801;SDS011;4940;50.900;4.672;2023-02-21T03:33:07;55.45;;;49.70;;
9801;SDS011;4940;50.900;4.672;2023-02-21T03:35:35;54.92;;;49.88;;
9801;SDS011;4940;50.900;4.672;2023-02-21T03:38:04;55.05;;;50.05;;
9801;SDS011;4940;50.900;4.672;2023-02-21T03:40:32;53.33;;;48.28;;
9801;SDS011;4940;50.900;4.672;2023-02-21T03:43:00;56.05;;;50.65;;
9801;SDS011;4940;50.900;4.672;2023-02-21T03:45:31;57.75;;;52.15;;
9801;SDS011;4940;50.900;4.672;2023-02-21T03:47:58;59.95;;;54.15;;
9801;SDS011;4940;50.900;4.672;2023-02-21T03:50:26;54.97;;;49.85;;
9801;SDS011;4940;50.900;4.672;2023-02-21T03:52:53;51.78;;;47.00;;
9801;SDS011;4940;50.900;4.672;2023-02-21T03:55:22;51.42;;;46.42;;
9801;SDS011;4940;50.900;4.672;2023-02-21T03:57:49;51.03;;;46.28;;
9801;SDS011;4940;50.900;4.672;2023-02-21T04:00:17;49.15;;;44.35;;
9801;SDS011;4940;50.900;4.672;2023-02-21T04:02:44;49.65;;;44.70;;
9801;SDS011;4940;50.900;4.672;2023-02-21T04:05:12;44.00;;;39.28;;
9801;SDS011;4940;50.900;4.672;2023-02-21T04:07:39;45.70;;;41.03;;
9801;SDS011;4940;50.900;4.672;2023-02-21T04:10:07;42.15;;;38.05;;
9801;SDS011;4940;50.900;4.672;2023-02-21T04:12:35;46.83;;;42.67;;
9801;SDS011;4940;50.900;4.672;2023-02-21T04:15:03;50.85;;;46.47;;
9801;SDS011;4940;50.900;4.672;2023-02-21T04:17:31;48.78;;;44.38;;
9801;SDS011;4940;50.900;4.672;2023-02-21T04:19:58;48.75;;;44.58;;
9801;SDS011;4940;50.900;4.672;2023-02-21T04:22:26;50.20;;;46.08;;
9801;SDS011;4940;50.900;4.672;2023-02-21T04:24:53;44.28;;;40.65;;
9801;SDS011;4940;50.900;4.672;2023-02-21T04:27:21;48.50;;;44.55;;
9801;SDS011;4940;50.900;4.672;2023-02-21T04:29:50;51.97;;;48.08;;
9801;SDS011;4940;50.900;4.672;2023-02-21T04:32:17;50.90;;;46.88;;
9801;SDS011;4940;50.900;4.672;2023-02-21T04:34:44;50.00;;;45.92;;
9801;SDS011;4940;50.900;4.672;2023-02-21T04:37:12;48.00;;;44.10;;
9801;SDS011;4940;50.900;4.672;2023-02-21T04:39:39;50.65;;;46.47;;
9801;SDS011;4940;50.900;4.672;2023-02-21T04:42:07;48.63;;;44.85;;
9801;SDS011;4940;50.900;4.672;2023-02-21T04:44:34;49.00;;;44.95;;
9801;SDS011;4940;50.900;4.672;2023-02-21T04:47:03;53.58;;;49.17;;
9801;SDS011;4940;50.900;4.672;2023-02-21T04:49:31;49.78;;;46.03;;
9801;SDS011;4940;50.900;4.672;2023-02-21T04:51:58;48.20;;;44.47;;
9801;SDS011;4940;50.900;4.672;2023-02-21T04:54:25;50.58;;;46.53;;
9801;SDS011;4940;50.900;4.672;2023-02-21T04:56:53;55.05;;;50.33;;
9801;SDS011;4940;50.900;4.672;2023-02-21T04:59:21;56.45;;;51.97;;
9801;SDS011;4940;50.900;4.672;2023-02-21T05:01:48;48.13;;;44.03;;
9801;SDS011;4940;50.900;4.672;2023-02-21T05:04:17;48.00;;;44.33;;
9801;SDS011;4940;50.900;4.672;2023-02-21T05:06:45;48.90;;;45.22;;
9801;SDS011;4940;50.900;4.672;2023-02-21T05:09:12;51.65;;;47.63;;
9801;SDS011;4940;50.900;4.672;2023-02-21T05:11:40;50.58;;;46.38;;
9801;SDS011;4940;50.900;4.672;2023-02-21T05:14:07;50.42;;;46.55;;
9801;SDS011;4940;50.900;4.672;2023-02-21T05:16:35;48.60;;;44.83;;
9801;SDS011;4940;50.900;4.672;2023-02-21T05:19:02;50.35;;;46.38;;
9801;SDS011;4940;50.900;4.672;2023-02-21T05:21:34;43.80;;;40.30;;
9801;SDS011;4940;50.900;4.672;2023-02-21T05:24:02;46.00;;;42.35;;
9801;SDS011;4940;50.900;4.672;2023-02-21T05:26:32;48.88;;;45.38;;
9801;SDS011;4940;50.900;4.672;2023-02-21T05:29:01;50.47;;;46.88;;
9801;SDS011;4940;50.900;4.672;2023-02-21T05:31:28;50.45;;;47.13;;
9801;SDS011;4940;50.900;4.672;2023-02-21T05:33:56;51.20;;;47.25;;
9801;SDS011;4940;50.900;4.672;2023-02-21T05:36:24;49.00;;;45.40;;
9801;SDS011;4940;50.900;4.672;2023-02-21T05:38:53;47.95;;;44.63;;
9801;SDS011;4940;50.900;4.672;2023-02-21T05:41:21;45.47;;;42.20;;
9801;SDS011;4940;50.900;4.672;2023-02-21T05:43:49;45.90;;;42.72;;
9801;SDS011;4940;50.900;4.672;2023-02-21T05:46:20;46.15;;;42.85;;
9801;SDS011;4940;50.900;4.672;2023-02-21T05:48:49;49.88;;;46.22;;
9801;SDS011;4940;50.900;4.672;2023-02-21T05:51:17;42.20;;;39.20;;
9801;SDS011;4940;50.900;4.672;2023-02-21T05:53:44;44.13;;;40.80;;
9801;SDS011;4940;50.900;4.672;2023-02-21T05:56:13;47.13;;;43.63;;
9801;SDS011;4940;50.900;4.672;2023-02-21T05:58:41;49.00;;;45.60;;
9801;SDS011;4940;50.900;4.672;2023-02-21T06:01:09;46.03;;;42.88;;
9801;SDS011;4940;50.900;4.672;2023-02-21T06:03:36;55.80;;;52.00;;
9801;SDS011;4940;50.900;4.672;2023-02-21T06:06:04;57.40;;;53.70;;
9801;SDS011;4940;50.900;4.672;2023-02-21T06:08:31;50.17;;;46.67;;
9801;SDS011;4940;50.900;4.672;2023-02-21T06:10:58;51.85;;;48.05;;
9801;SDS011;4940;50.900;4.672;2023-02-21T06:13:27;48.30;;;44.75;;
9801;SDS011;4940;50.900;4.672;2023-02-21T06:15:55;50.50;;;46.85;;
9801;SDS011;4940;50.900;4.672;2023-02-21T06:18:22;51.78;;;47.95;;
9801;SDS011;4940;50.900;4.672;2023-02-21T06:20:50;50.67;;;47.28;;
9801;SDS011;4940;50.900;4.672;2023-02-21T06:23:17;50.17;;;46.72;;
9801;SDS011;4940;50.900;4.672;2023-02-21T06:25:45;42.53;;;39.60;;
9801;SDS011;4940;50.900;4.672;2023-02-21T06:28:12;46.67;;;43.38;;
9801;SDS011;4940;50.900;4.672;2023-02-21T06:30:41;43.85;;;40.40;;
9801;SDS011;4940;50.900;4.672;2023-02-21T06:33:08;48.88;;;45.47;;
9801;SDS011;4940;50.900;4.672;2023-02-21T06:35:35;52.63;;;49.20;;
9801;SDS011;4940;50.900;4.672;2023-02-21T06:38:03;48.00;;;44.58;;
9801;SDS011;4940;50.900;4.672;2023-02-21T06:40:30;52.42;;;48.92;;
9801;SDS011;4940;50.900;4.672;2023-02-21T06:42:58;52.67;;;49.28;;
9801;SDS011;4940;50.900;4.672;2023-02-21T06:45:25;48.10;;;45.08;;
9801;SDS011;4940;50.900;4.672;2023-02-21T06:47:54;47.50;;;44.40;;
9801;SDS011;4940;50.900;4.672;2023-02-21T06:50:21;47.58;;;44.65;;
9801;SDS011;4940;50.900;4.672;2023-02-21T06:52:51;44.03;;;41.03;;
9801;SDS011;4940;50.900;4.672;2023-02-21T06:55:19;47.22;;;44.20;;
9801;SDS011;4940;50.900;4.672;2023-02-21T06:57:47;47.30;;;44.25;;
9801;SDS011;4940;50.900;4.672;2023-02-21T07:00:15;49.35;;;46.22;;
9801;SDS011;4940;50.900;4.672;2023-02-21T07:02:43;45.60;;;42.45;;
9801;SDS011;4940;50.900;4.672;2023-02-21T07:05:12;48.92;;;45.83;;
9801;SDS011;4940;50.900;4.672;2023-02-21T07:07:40;49.40;;;46.10;;
9801;SDS011;4940;50.900;4.672;2023-02-21T07:10:08;45.15;;;42.03;;
9801;SDS011;4940;50.900;4.672;2023-02-21T07:12:35;41.25;;;38.47;;
9801;SDS011;4940;50.900;4.672;2023-02-21T07:15:03;41.53;;;38.92;;
9801;SDS011;4940;50.900;4.672;2023-02-21T07:17:31;39.17;;;36.38;;
9801;SDS011;4940;50.900;4.672;2023-02-21T07:19:58;38.63;;;35.97;;
9801;SDS011;4940;50.900;4.672;2023-02-21T07:22:27;40.10;;;37.35;;
9801;SDS011;4940;50.900;4.672;2023-02-21T07:24:54;40.90;;;38.00;;
9801;SDS011;4940;50.900;4.672;2023-02-21T07:27:21;38.00;;;35.38;;
9801;SDS011;4940;50.900;4.672;2023-02-21T07:29:49;33.28;;;30.80;;
9801;SDS011;4940;50.900;4.672;2023-02-21T07:32:16;34.92;;;32.28;;
9801;SDS011;4940;50.900;4.672;2023-02-21T07:34:44;35.97;;;33.25;;
9801;SDS011;4940;50.900;4.672;2023-02-21T07:37:11;38.03;;;35.22;;
9801;SDS011;4940;50.900;4.672;2023-02-21T07:39:40;36.30;;;33.80;;
9801;SDS011;4940;50.900;4.672;2023-02-21T07:42:07;40.03;;;37.13;;
9801;SDS011;4940;50.900;4.672;2023-02-21T07:44:35;39.80;;;37.10;;
9801;SDS011;4940;50.900;4.672;2023-02-21T07:47:02;35.58;;;33.17;;
9801;SDS011;4940;50.900;4.672;2023-02-21T07:49:30;34.38;;;32.08;;
9801;SDS011;4940;50.900;4.672;2023-02-21T07:51:58;36.60;;;34.10;;
9801;SDS011;4940;50.900;4.672;2023-02-21T07:54:25;36.13;;;33.72;;
9801;SDS011;4940;50.900;4.672;2023-02-21T07:56:54;36.38;;;33.78;;
9801;SDS011;4940;50.900;4.672;2023-02-21T07:59:21;36.13;;;33.42;;
9801;SDS011;4940;50.900;4.672;2023-02-21T08:01:49;35.85;;;33.50;;
9801;SDS011;4940;50.900;4.672;2023-02-21T08:04:16;35.92;;;33.42;;
9801;SDS011;4940;50.900;4.672;2023-02-21T08:06:45;36.65;;;34.10;;
9801;SDS011;4940;50.900;4.672;2023-02-21T08:09:13;36.65;;;34.03;;
9801;SDS011;4940;50.900;4.672;2023-02-21T08:11:41;36.60;;;34.03;;
9801;SDS011;4940;50.900;4.672;2023-02-21T08:14:10;36.20;;;33.75;;
9801;SDS011;4940;50.900;4.672;2023-02-21T08:16:37;33.78;;;31.58;;
9801;SDS011;4940;50.900;4.672;2023-02-21T08:19:04;36.75;;;34.10;;
9801;SDS011;4940;50.900;4.672;2023-02-21T08:21:33;37.40;;;34.78;;
9801;SDS011;4940;50.900;4.672;2023-02-21T08:24:01;33.63;;;31.23;;
9801;SDS011;4940;50.900;4.672;2023-02-21T08:26:28;32.72;;;30.55;;
9801;SDS011;4940;50.900;4.672;2023-02-21T08:28:56;32.63;;;30.42;;
9801;SDS011;4940;50.900;4.672;2023-02-21T08:31:24;35.10;;;32.65;;
9801;SDS011;4940;50.900;4.672;2023-02-21T08:33:52;34.08;;;31.85;;
9801;SDS011;4940;50.900;4.672;2023-02-21T08:36:19;37.88;;;35.30;;
9801;SDS011;4940;50.900;4.672;2023-02-21T08:38:49;34.83;;;32.58;;
9801;SDS011;4940;50.900;4.672;2023-02-21T08:41:17;32.25;;;30.00;;
9801;SDS011;4940;50.900;4.672;2023-02-21T08:43:45;32.63;;;30.45;;
9801;SDS011;4940;50.900;4.672;2023-02-21T08:46:13;30.83;;;28.75;;
9801;SDS011;4940;50.900;4.672;2023-02-21T08:48:42;32.53;;;30.38;;
9801;SDS011;4940;50.900;4.672;2023-02-21T08:51:09;33.75;;;31.42;;
9801;SDS011;4940;50.900;4.672;2023-02-21T08:53:37;33.35;;;31.23;;
9801;SDS011;4940;50.900;4.672;2023-02-21T08:56:05;32.55;;;30.25;;
9801;SDS011;4940;50.900;4.672;2023-02-21T08:58:32;34.78;;;32.38;;
9801;SDS011;4940;50.900;4.672;2023-02-21T09:01:00;33.08;;;31.05;;
9801;SDS011;4940;50.900;4.672;2023-02-21T09:03:28;32.05;;;29.83;;
9801;SDS011;4940;50.900;4.672;2023-02-21T09:05:56;34.10;;;31.80;;
9801;SDS011;4940;50.900;4.672;2023-02-21T09:08:23;32.65;;;30.45;;
9801;SDS011;4940;50.900;4.672;2023-02-21T09:10:52;33.17;;;31.08;;
9801;SDS011;4940;50.900;4.672;2023-02-21T09:13:24;32.38;;;30.38;;
9801;SDS011;4940;50.900;4.672;2023-02-21T09:15:52;31.10;;;29.15;;
9801;SDS011;4940;50.900;4.672;2023-02-21T09:18:19;32.15;;;29.85;;
9801;SDS011;4940;50.900;4.672;2023-02-21T09:20:46;33.67;;;31.35;;
9801;SDS011;4940;50.900;4.672;2023-02-21T09:23:17;33.25;;;31.05;;
9801;SDS011;4940;50.900;4.672;2023-02-21T09:25:45;34.13;;;31.83;;
9801;SDS011;4940;50.900;4.672;2023-02-21T09:28:12;34.60;;;32.28;;
9801;SDS011;4940;50.900;4.672;2023-02-21T09:30:40;31.75;;;29.65;;
9801;SDS011;4940;50.900;4.672;2023-02-21T09:33:07;33.05;;;30.65;;
9801;SDS011;4940;50.900;4.672;2023-02-21T09:35:35;33.15;;;30.70;;
9801;SDS011;4940;50.900;4.672;2023-02-21T09:38:03;35.00;;;32.50;;
9801;SDS011;4940;50.900;4.672;2023-02-21T09:40:35;33.78;;;31.38;;
9801;SDS011;4940;50.900;4.672;2023-02-21T09:43:07;35.25;;;32.75;;
9801;SDS011;4940;50.900;4.672;2023-02-21T09:45:39;34.55;;;32.15;;
9801;SDS011;4940;50.900;4.672;2023-02-21T09:48:10;33.40;;;31.13;;
9801;SDS011;4940;50.900;4.672;2023-02-21T09:50:40;31.95;;;29.65;;
9801;SDS011;4940;50.900;4.672;2023-02-21T09:53:10;29.58;;;27.40;;
9801;SDS011;4940;50.900;4.672;2023-02-21T09:55:43;29.65;;;27.52;;
9801;SDS011;4940;50.900;4.672;2023-02-21T09:58:11;30.48;;;28.30;;
9801;SDS011;4940;50.900;4.672;2023-02-21T10:00:40;29.60;;;27.42;;
9801;SDS011;4940;50.900;4.672;2023-02-21T10:03:15;30.05;;;28.05;;
9801;SDS011;4940;50.900;4.672;2023-02-21T10:06:03;28.70;;;26.55;;
9801;SDS011;4940;50.900;4.672;2023-02-21T10:08:38;25.38;;;23.65;;
9801;SDS011;4940;50.900;4.672;2023-02-21T10:11:18;26.25;;;24.40;;
9801;SDS011;4940;50.900;4.672;2023-02-21T10:13:55;25.00;;;23.05;;
9801;SDS011;4940;50.900;4.672;2023-02-21T10:16:32;20.55;;;19.05;;
9801;SDS011;4940;50.900;4.672;2023-02-21T10:19:06;20.05;;;18.40;;
9801;SDS011;4940;50.900;4.672;2023-02-21T10:21:42;20.55;;;18.90;;
9801;SDS011;4940;50.900;4.672;2023-02-21T10:24:13;17.42;;;15.88;;
9801;SDS011;4940;50.900;4.672;2023-02-21T10:26:43;19.00;;;17.40;;
9801;SDS011;4940;50.900;4.672;2023-02-21T10:29:16;15.95;;;14.60;;
9801;SDS011;4940;50.900;4.672;2023-02-21T10:31:47;17.85;;;14.95;;
9801;SDS011;4940;50.900;4.672;2023-02-21T10:34:21;15.27;;;13.85;;
9801;SDS011;4940;50.900;4.672;2023-02-21T10:36:51;16.58;;;14.90;;
9801;SDS011;4940;50.900;4.672;2023-02-21T10:39:20;16.98;;;15.07;;
9801;SDS011;4940;50.900;4.672;2023-02-21T10:41:51;15.55;;;14.13;;
9801;SDS011;4940;50.900;4.672;2023-02-21T10:44:23;17.05;;;15.52;;
9801;SDS011;4940;50.900;4.672;2023-02-21T10:46:54;17.77;;;15.90;;
9801;SDS011;4940;50.900;4.672;2023-02-21T10:49:28;16.95;;;15.32;;
9801;SDS011;4940;50.900;4.672;2023-02-21T10:52:04;17.25;;;15.57;;
9801;SDS011;4940;50.900;4.672;2023-02-21T10:54:34;17.10;;;15.55;;
9801;SDS011;4940;50.900;4.672;2023-02-21T10:57:05;16.15;;;14.13;;
9801;SDS011;4940;50.900;4.672;2023-02-21T10:59:36;19.15;;;16.42;;
9801;SDS011;4940;50.900;4.672;2023-02-21T11:02:21;18.45;;;16.83;;
9801;SDS011;4940;50.900;4.672;2023-02-21T11:04:54;19.35;;;17.48;;
9801;SDS011;4940;50.900;4.672;2023-02-21T11:07:32;20.05;;;18.33;;
9801;SDS011;4940;50.900;4.672;2023-02-21T11:10:00;17.98;;;16.42;;
9801;SDS011;4940;50.900;4.672;2023-02-21T11:12:29;18.75;;;17.00;;
9801;SDS011;4940;50.900;4.672;2023-02-21T11:17:42;20.33;;;18.42;;
9801;SDS011;4940;50.900;4.672;2023-02-21T11:20:15;19.23;;;17.17;;
9801;SDS011;4940;50.900;4.672;2023-02-21T11:22:45;18.85;;;16.95;;
9801;SDS011;4940;50.900;4.672;2023-02-21T11:25:23;18.50;;;16.58;;
9801;SDS011;4940;50.900;4.672;2023-02-21T11:28:02;21.42;;;19.23;;
9801;SDS011;4940;50.900;4.672;2023-02-21T11:30:31;20.73;;;18.83;;
9801;SDS011;4940;50.900;4.672;2023-02-21T11:33:01;20.33;;;18.23;;
9801;SDS011;4940;50.900;4.672;2023-02-21T11:35:32;18.92;;;17.02;;
9801;SDS011;4940;50.900;4.672;2023-02-21T11:38:01;18.63;;;16.10;;
9801;SDS011;4940;50.900;4.672;2023-02-21T11:40:31;19.92;;;17.85;;
9801;SDS011;4940;50.900;4.672;2023-02-21T11:43:11;18.55;;;16.60;;
9801;SDS011;4940;50.900;4.672;2023-02-21T11:45:56;18.67;;;14.65;;
9801;SDS011;4940;50.900;4.672;2023-02-21T11:48:31;18.10;;;15.48;;
9801;SDS011;4940;50.900;4.672;2023-02-21T11:51:02;20.90;;;15.35;;
9801;SDS011;4940;50.900;4.672;2023-02-21T11:53:35;18.60;;;16.02;;
9801;SDS011;4940;50.900;4.672;2023-02-21T11:56:12;18.88;;;14.48;;
9801;SDS011;4940;50.900;4.672;2023-02-21T11:58:48;18.92;;;15.20;;
9801;SDS011;4940;50.900;4.672;2023-02-21T12:01:23;17.88;;;12.93;;
9801;SDS011;4940;50.900;4.672;2023-02-21T12:04:11;19.55;;;16.00;;
9801;SDS011;4940;50.900;4.672;2023-02-21T12:06:48;17.65;;;14.90;;
9801;SDS011;4940;50.900;4.672;2023-02-21T12:09:22;16.20;;;13.98;;
9801;SDS011;4940;50.900;4.672;2023-02-21T12:12:00;14.45;;;12.82;;
9801;SDS011;4940;50.900;4.672;2023-02-21T12:14:49;16.83;;;11.10;;
9801;SDS011;4940;50.900;4.672;2023-02-21T12:17:28;13.35;;;10.25;;
9801;SDS011;4940;50.900;4.672;2023-02-21T12:20:17;13.73;;;10.52;;
9801;SDS011;4940;50.900;4.672;2023-02-21T12:22:57;14.90;;;9.90;;
9801;SDS011;4940;50.900;4.672;2023-02-21T12:25:32;14.40;;;9.60;;
9801;SDS011;4940;50.900;4.672;2023-02-21T12:28:10;17.08;;;10.43;;
9801;SDS011;4940;50.900;4.672;2023-02-21T12:30:55;15.95;;;9.05;;
9801;SDS011;4940;50.900;4.672;2023-02-21T12:33:42;17.02;;;9.82;;
9801;SDS011;4940;50.900;4.672;2023-02-21T12:36:16;13.80;;;7.80;;
9801;SDS011;4940;50.900;4.672;2023-02-21T12:38:59;16.73;;;8.60;;
9801;SDS011;4940;50.900;4.672;2023-02-21T12:41:49;13.10;;;6.90;;
9801;SDS011;4940;50.900;4.672;2023-02-21T12:44:36;14.73;;;7.85;;
9801;SDS011;4940;50.900;4.672;2023-02-21T12:47:15;13.45;;;7.80;;
9801;SDS011;4940;50.900;4.672;2023-02-21T12:49:46;11.77;;;6.95;;
9801;SDS011;4940;50.900;4.672;2023-02-21T12:52:20;14.95;;;8.10;;
9801;SDS011;4940;50.900;4.672;2023-02-21T12:54:55;13.75;;;7.95;;
9801;SDS011;4940;50.900;4.672;2023-02-21T12:57:27;14.38;;;8.23;;
9801;SDS011;4940;50.900;4.672;2023-02-21T13:00:01;15.93;;;8.07;;
9801;SDS011;4940;50.900;4.672;2023-02-21T13:02:44;17.95;;;8.30;;
9801;SDS011;4940;50.900;4.672;2023-02-21T13:05:22;15.13;;;8.20;;
9801;SDS011;4940;50.900;4.672;2023-02-21T13:07:55;14.57;;;7.97;;
9801;SDS011;4940;50.900;4.672;2023-02-21T13:10:27;14.65;;;8.00;;
9801;SDS011;4940;50.900;4.672;2023-02-21T13:12:59;14.30;;;7.70;;
9801;SDS011;4940;50.900;4.672;2023-02-21T13:15:33;15.85;;;7.78;;
9801;SDS011;4940;50.900;4.672;2023-02-21T13:18:06;15.18;;;7.10;;
9801;SDS011;4940;50.900;4.672;2023-02-21T13:20:35;17.23;;;7.40;;
9801;SDS011;4940;50.900;4.672;2023-02-21T13:25:57;15.02;;;7.90;;
9801;SDS011;4940;50.900;4.672;2023-02-21T13:28:39;16.17;;;7.55;;
9801;SDS011;4940;50.900;4.672;2023-02-21T13:31:16;16.92;;;7.15;;
9801;SDS011;4940;50.900;4.672;2023-02-21T13:33:49;18.40;;;7.90;;
9801;SDS011;4940;50.900;4.672;2023-02-21T13:36:22;19.40;;;7.10;;
9801;SDS011;4940;50.900;4.672;2023-02-21T13:38:59;14.15;;;7.45;;
9801;SDS011;4940;50.900;4.672;2023-02-21T13:41:29;17.13;;;7.95;;
9801;SDS011;4940;50.900;4.672;2023-02-21T13:44:03;17.52;;;7.97;;
9801;SDS011;4940;50.900;4.672;2023-02-21T13:49:41;17.52;;;8.18;;
9801;SDS011;4940;50.900;4.672;2023-02-21T13:52:34;18.20;;;7.95;;
9801;SDS011;4940;50.900;4.672;2023-02-21T13:55:23;20.60;;;8.70;;
9801;SDS011;4940;50.900;4.672;2023-02-21T14:01:14;21.83;;;9.32;;
9801;SDS011;4940;50.900;4.672;2023-02-21T14:03:46;21.75;;;9.50;;
9801;SDS011;4940;50.900;4.672;2023-02-21T14:06:21;23.67;;;10.63;;
9801;SDS011;4940;50.900;4.672;2023-02-21T14:08:58;21.80;;;9.55;;
9801;SDS011;4940;50.900;4.672;2023-02-21T14:11:29;25.73;;;10.30;;
9801;SDS011;4940;50.900;4.672;2023-02-21T14:14:02;23.98;;;10.35;;
9801;SDS011;4940;50.900;4.672;2023-02-21T14:16:32;21.75;;;9.95;;
9801;SDS011;4940;50.900;4.672;2023-02-21T14:19:04;25.25;;;9.63;;
9801;SDS011;4940;50.900;4.672;2023-02-21T14:21:38;24.42;;;9.68;;
9801;SDS011;4940;50.900;4.672;2023-02-21T14:24:10;18.60;;;9.27;;
9801;SDS011;4940;50.900;4.672;2023-02-21T14:26:42;19.50;;;8.48;;
9801;SDS011;4940;50.900;4.672;2023-02-21T14:29:27;17.00;;;8.10;;
9801;SDS011;4940;50.900;4.672;2023-02-21T14:34:50;14.85;;;8.15;;
9801;SDS011;4940;50.900;4.672;2023-02-21T14:37:23;15.93;;;8.05;;
9801;SDS011;4940;50.900;4.672;2023-02-21T14:39:57;19.35;;;8.32;;
9801;SDS011;4940;50.900;4.672;2023-02-21T14:42:36;20.08;;;8.68;;
9801;SDS011;4940;50.900;4.672;2023-02-21T14:45:21;18.42;;;8.65;;
9801;SDS011;4940;50.900;4.672;2023-02-21T14:57:45;20.77;;;9.30;;
9801;SDS011;4940;50.900;4.672;2023-02-21T15:00:27;24.60;;;9.25;;
9801;SDS011;4940;50.900;4.672;2023-02-21T15:03:02;24.60;;;10.60;;
9801;SDS011;4940;50.900;4.672;2023-02-21T15:05:37;23.48;;;10.88;;
9801;SDS011;4940;50.900;4.672;2023-02-21T15:08:11;20.40;;;9.02;;
9801;SDS011;4940;50.900;4.672;2023-02-21T15:10:42;20.85;;;9.88;;
9801;SDS011;4940;50.900;4.672;2023-02-21T15:13:22;20.10;;;9.70;;
9801;SDS011;4940;50.900;4.672;2023-02-21T15:15:54;21.63;;;9.68;;
9801;SDS011;4940;50.900;4.672;2023-02-21T15:18:24;23.17;;;9.40;;
9801;SDS011;4940;50.900;4.672;2023-02-21T15:21:04;20.60;;;9.40;;
9801;SDS011;4940;50.900;4.672;2023-02-21T15:23:33;19.98;;;9.10;;
9801;SDS011;4940;50.900;4.672;2023-02-21T15:26:08;21.13;;;9.98;;
9801;SDS011;4940;50.900;4.672;2023-02-21T15:28:44;16.10;;;7.85;;
9801;SDS011;4940;50.900;4.672;2023-02-21T15:31:11;16.73;;;8.55;;
9801;SDS011;4940;50.900;4.672;2023-02-21T15:33:42;14.15;;;7.72;;
9801;SDS011;4940;50.900;4.672;2023-02-21T15:36:13;17.35;;;8.77;;
9801;SDS011;4940;50.900;4.672;2023-02-21T15:38:44;17.33;;;7.68;;
9801;SDS011;4940;50.900;4.672;2023-02-21T15:41:14;15.45;;;7.78;;
9801;SDS011;4940;50.900;4.672;2023-02-21T15:43:54;20.15;;;8.73;;
9801;SDS011;4940;50.900;4.672;2023-02-21T15:46:26;15.98;;;8.05;;
9801;SDS011;4940;50.900;4.672;2023-02-21T15:48:58;13.48;;;6.78;;
9801;SDS011;4940;50.900;4.672;2023-02-21T15:51:27;14.40;;;7.03;;
9801;SDS011;4940;50.900;4.672;2023-02-21T15:54:09;17.90;;;8.45;;
9801;SDS011;4940;50.900;4.672;2023-02-21T15:56:47;17.15;;;8.25;;
9801;SDS011;4940;50.900;4.672;2023-02-21T15:59:28;13.57;;;8.02;;
9801;SDS011;4940;50.900;4.672;2023-02-21T16:02:05;15.90;;;7.75;;
9801;SDS011;4940;50.900;4.672;2023-02-21T16:04:38;13.98;;;7.07;;